Time;durP1;ratioP1;P1;durP2;ratioP2;P2;SDS_P1;SDS_P2;PMS_P1;PMS_P2;Temp;Humidity;BMP_temperature;BMP_pressure;BME280_temperature;BME280_humidity;BME280_pressure;Samples;Min_cycle;Max_cycle;Signal;HPM_P1;HPM_P2
2021/12/05 00:16:55;;;;;;;16.83;3.60;;;;;;;4.65;90.99;99662.59;5054502;28;20364;-74
2021/12/05 00:17:42;;;;;;;15.00;4.03;;;;;;;4.35;91.07;99684.03;5055237;28;20035;-72
2021/12/05 00:22:43;;;;;;;13.60;4.18;;;;;;;4.45;90.27;99682.78;5054326;28;20120;-73
2021/12/05 00:25:13;;;;;;;16.17;4.82;;;;;;;4.48;89.73;99672.22;5053879;28;20032;-73
2021/12/05 00:27:45;;;;;;;15.60;3.80;;;;;;;4.56;89.91;99676.47;5054119;28;20083;-72
2021/12/05 00:33:05;;;;;;;18.95;3.97;;;;;;;4.51;89.47;99687.22;5054109;28;20479;-72
2021/12/05 00:36:05;;;;;;;12.25;3.60;;;;;;;4.42;89.08;99680.56;5053343;28;20107;-72
2021/12/05 00:41:36;;;;;;;15.02;3.40;;;;;;;4.36;88.49;99675.38;5054018;28;20175;-73
2021/12/05 00:49:31;;;;;;;15.18;3.83;;;;;;;4.51;87.76;99669.28;5054170;28;20060;-73
2021/12/05 00:57:35;;;;;;;13.80;3.75;;;;;;;4.41;87.96;99668.75;5054555;28;20047;-73
2021/12/05 01:15:28;;;;;;;21.70;4.35;;;;;;;4.47;86.58;99688.53;5053730;28;20036;-73
2021/12/05 01:18:01;;;;;;;19.15;4.65;;;;;;;4.37;86.77;99687.97;5035581;28;20444;-74
2021/12/05 01:26:18;;;;;;;28.08;5.20;;;;;;;4.32;87.49;99684.38;5054277;28;20037;-72
2021/12/05 01:31:41;;;;;;;23.83;5.00;;;;;;;4.32;87.26;99687.72;5054186;28;20142;-72
2021/12/05 01:42:23;;;;;;;18.02;4.47;;;;;;;4.33;87.03;99685.94;5053426;28;20127;-72
2021/12/05 01:45:17;;;;;;;21.50;4.82;;;;;;;4.44;86.99;99699.13;5053024;28;20024;-72
2021/12/05 01:48:05;;;;;;;19.65;5.13;;;;;;;4.29;86.40;99688.84;5057009;28;20060;-73
2021/12/05 01:55:51;;;;;;;19.92;4.90;;;;;;;4.29;86.75;99695.72;5057246;28;20029;-73
2021/12/05 02:01:18;;;;;;;19.45;4.65;;;;;;;4.36;87.13;99688.94;5057779;28;20558;-72
2021/12/05 02:36:29;;;;;;;18.77;4.80;;;;;;;3.98;87.83;99688.13;5056615;28;20060;-72
2021/12/05 02:41:41;;;;;;;16.70;4.30;;;;;;;3.86;86.96;99669.06;5056259;28;20086;-72
2021/12/05 02:44:20;;;;;;;17.67;4.32;;;;;;;3.89;88.15;99674.63;5038266;28;20399;-74
2021/12/05 02:46:58;;;;;;;21.90;4.13;;;;;;;3.90;87.76;99668.53;5038222;28;20066;-72
2021/12/05 02:49:25;;;;;;;21.70;4.82;;;;;;;3.93;87.13;99670.75;5038337;28;20036;-73
2021/12/05 02:51:58;;;;;;;21.33;4.82;;;;;;;3.91;87.29;99670.09;5038066;28;20032;-73
2021/12/05 02:54:28;;;;;;;15.27;4.18;;;;;;;3.75;86.99;99671.03;5055981;28;20491;-73
2021/12/05 02:56:56;;;;;;;18.17;5.00;;;;;;;3.69;87.40;99674.25;5037350;28;20032;-73
2021/12/05 03:01:55;;;;;;;17.27;4.43;;;;;;;3.67;88.06;99665.97;5055881;28;20032;-73
2021/12/05 03:04:24;;;;;;;17.88;4.25;;;;;;;3.72;87.55;99668.00;5055809;28;20082;-73
2021/12/05 03:06:52;;;;;;;15.00;4.13;;;;;;;3.69;87.16;99671.69;5037813;28;20025;-73
2021/12/05 03:09:18;;;;;;;20.83;4.95;;;;;;;3.57;87.19;99675.63;5037770;28;20024;-73
2021/12/05 03:11:44;;;;;;;22.92;4.85;;;;;;;3.57;87.12;99673.84;5055608;28;20052;-73
2021/12/05 03:14:10;;;;;;;12.48;4.75;;;;;;;3.51;88.16;99681.38;5055563;28;20029;-72
2021/12/05 03:16:38;;;;;;;15.45;4.45;;;;;;;3.48;87.50;99682.53;5037723;28;20032;-73
2021/12/05 03:19:06;;;;;;;16.25;4.40;;;;;;;3.56;87.33;99679.13;5034118;28;20053;-72
2021/12/05 03:21:32;;;;;;;21.17;5.32;;;;;;;3.58;87.39;99688.19;5035518;28;20037;-73
2021/12/05 03:23:59;;;;;;;19.55;4.32;;;;;;;3.55;86.96;99692.84;5034231;28;20060;-73
2021/12/05 03:26:28;;;;;;;23.98;4.75;;;;;;;3.51;87.49;99694.13;5035500;28;20053;-73
2021/12/05 03:28:55;;;;;;;15.95;4.45;;;;;;;3.42;87.60;99690.03;5034200;28;20060;-73
2021/12/05 03:31:21;;;;;;;11.88;4.10;;;;;;;3.37;87.99;99698.22;5035293;28;20138;-72
2021/12/05 03:33:46;;;;;;;12.30;4.15;;;;;;;3.32;88.33;99698.69;5035404;28;20061;-71
2021/12/05 03:36:12;;;;;;;16.40;4.22;;;;;;;3.22;88.72;99702.41;5035388;28;20472;-71
2021/12/05 03:38:39;;;;;;;16.08;4.28;;;;;;;3.28;88.82;99700.00;5035267;28;20029;-72
2021/12/05 03:41:05;;;;;;;20.20;4.90;;;;;;;3.24;88.15;99706.38;5033975;28;20025;-72
2021/12/05 03:43:31;;;;;;;14.43;3.92;;;;;;;3.24;88.76;99700.50;5033874;28;20043;-73
2021/12/05 03:45:57;;;;;;;19.17;4.07;;;;;;;3.28;88.63;99702.56;5035165;28;20025;-72
2021/12/05 03:48:26;;;;;;;17.02;3.97;;;;;;;3.16;88.45;99703.88;5035050;28;20017;-71
2021/12/05 03:50:52;;;;;;;14.00;4.57;;;;;;;3.19;89.59;99702.75;5033714;28;20473;-73
2021/12/05 03:53:18;;;;;;;10.57;3.70;;;;;;;3.22;89.05;99702.41;5035023;28;20496;-72
2021/12/05 03:55:47;;;;;;;18.50;4.32;;;;;;;3.19;89.22;99700.97;5034874;28;20079;-72
2021/12/05 03:58:13;;;;;;;17.05;3.97;;;;;;;3.29;89.04;99703.34;5035417;28;20033;-72
2021/12/05 04:00:42;;;;;;;18.15;4.35;;;;;;;3.24;89.29;99701.28;5034830;28;20530;-72
2021/12/05 04:03:10;;;;;;;19.42;3.95;;;;;;;3.22;89.74;99699.84;5034834;28;20147;-72
2021/12/05 04:05:35;;;;;;;17.67;4.30;;;;;;;3.15;89.48;99699.72;5034663;28;20048;-71
2021/12/05 04:08:06;;;;;;;16.60;4.30;;;;;;;3.26;89.47;99703.69;5034592;28;20022;-72
2021/12/05 04:10:32;;;;;;;18.20;4.18;;;;;;;3.30;89.39;99698.06;5033928;28;20550;-71
2021/12/05 04:12:57;;;;;;;17.80;4.22;;;;;;;3.38;88.53;99710.81;5034705;28;20155;-71
2021/12/05 04:15:23;;;;;;;16.80;4.60;;;;;;;3.41;88.86;99706.34;5034625;28;20032;-72
2021/12/05 04:17:48;;;;;;;16.40;4.22;;;;;;;3.39;89.10;99714.97;5033418;28;20029;-73
2021/12/05 04:20:15;;;;;;;15.45;4.15;;;;;;;3.39;88.60;99707.31;5033153;28;20128;-73
2021/12/05 04:22:43;;;;;;;11.88;3.75;;;;;;;3.40;89.11;99713.22;5033414;28;20121;-71
2021/12/05 04:25:10;;;;;;;20.50;4.20;;;;;;;3.49;88.69;99714.75;5034047;28;20032;-75
2021/12/05 04:27:40;;;;;;;16.20;4.80;;;;;;;3.41;89.53;99717.34;5036414;28;20108;-74
2021/12/05 04:30:08;;;;;;;12.30;4.07;;;;;;;3.44;88.99;99718.78;5037158;28;20033;-76
2021/12/05 04:32:34;;;;;;;15.80;4.18;;;;;;;3.41;89.21;99709.69;5035564;28;20507;-75
2021/12/05 04:34:59;;;;;;;13.43;4.32;;;;;;;3.44;89.54;99706.78;5036424;28;20021;-74
2021/12/05 04:37:25;;;;;;;17.98;4.82;;;;;;;3.64;89.33;99706.38;5036582;28;20372;-76
2021/12/05 04:39:51;;;;;;;19.88;5.10;;;;;;;3.56;88.69;99697.78;5036928;28;20538;-77
2021/12/05 04:42:17;;;;;;;17.67;4.90;;;;;;;3.54;89.20;99701.47;5037043;28;20384;-73
2021/12/05 04:44:43;;;;;;;11.80;4.75;;;;;;;3.52;89.37;99703.41;5034816;28;20034;-72
2021/12/05 04:47:10;;;;;;;17.35;5.05;;;;;;;3.52;89.44;99705.97;5033390;28;20365;-75
2021/12/05 04:49:38;;;;;;;21.50;5.35;;;;;;;3.59;89.16;99707.66;5033279;28;20453;-73
2021/12/05 04:52:04;;;;;;;19.15;5.30;;;;;;;3.59;88.89;99717.09;5033122;28;20021;-73
2021/12/05 04:54:29;;;;;;;16.05;5.13;;;;;;;3.64;89.78;99711.50;5034391;28;20083;-73
2021/12/05 04:56:55;;;;;;;15.07;4.78;;;;;;;3.64;89.47;99711.50;5032831;28;20389;-73
2021/12/05 04:59:23;;;;;;;15.98;5.55;;;;;;;3.57;90.02;99712.16;5034380;28;20104;-73
2021/12/05 05:01:50;;;;;;;17.10;5.45;;;;;;;3.65;89.24;99713.06;5033071;28;20108;-73
2021/12/05 05:04:42;;;;;;;13.50;5.32;;;;;;;3.71;88.72;99718.34;5032778;28;20028;-73
2021/12/05 05:07:13;;;;;;;17.05;5.25;;;;;;;3.73;88.68;99718.16;5034097;28;20036;-72
2021/12/05 05:09:39;;;;;;;15.65;5.63;;;;;;;3.67;89.14;99719.63;5033759;28;20438;-72
2021/12/05 05:12:04;;;;;;;22.88;6.35;;;;;;;3.72;88.94;99725.03;5033677;28;20100;-72
2021/12/05 05:14:30;;;;;;;16.77;6.50;;;;;;;3.83;88.90;99722.09;5034002;28;20031;-75
2021/12/05 05:16:55;;;;;;;17.90;6.13;;;;;;;3.83;88.97;99734.88;5032282;28;20049;-74
2021/12/05 05:19:26;;;;;;;11.23;5.40;;;;;;;3.89;89.11;99735.97;5040854;28;20064;-73
2021/12/05 05:22:05;;;;;;;20.10;5.65;;;;;;;3.99;88.35;99741.63;5053151;28;20027;-73
2021/12/05 05:27:29;;;;;;;21.98;5.80;;;;;;;4.08;88.84;99752.59;5053443;28;20021;-72
2021/12/05 05:30:41;;;;;;;15.73;5.65;;;;;;;3.96;88.61;99761.63;5053166;28;20116;-72
2021/12/05 05:43:52;;;;;;;21.70;6.80;;;;;;;3.88;89.60;99775.25;5053772;28;20051;-71
2021/12/05 05:46:22;;;;;;;17.48;6.90;;;;;;;3.87;89.45;99775.44;5035341;28;20179;-74
2021/12/05 05:48:51;;;;;;;18.90;6.80;;;;;;;3.84;89.60;99772.22;5035369;28;20079;-72
2021/12/05 05:51:17;;;;;;;16.83;6.53;;;;;;;3.93;89.64;99767.09;5035232;28;20025;-72
2021/12/05 05:53:46;;;;;;;14.23;6.65;;;;;;;3.88;89.97;99759.91;5035172;28;20029;-72
2021/12/05 05:56:17;;;;;;;13.93;6.40;;;;;;;3.94;89.26;99763.53;5035211;28;20022;-71
2021/12/05 05:58:47;;;;;;;17.20;7.20;;;;;;;3.90;89.03;99773.31;5035288;28;20078;-71
2021/12/05 06:01:44;;;;;;;15.57;6.22;;;;;;;3.96;88.66;99782.88;5035224;28;20017;-70
2021/12/05 06:04:08;;;;;;;13.13;6.00;;;;;;;4.06;89.46;99778.34;5052892;28;20037;-73
2021/12/05 06:06:33;;;;;;;16.45;6.60;;;;;;;3.91;89.30;99787.69;5053507;28;20025;-71
2021/12/05 06:09:00;;;;;;;18.00;6.63;;;;;;;3.88;89.16;99794.91;5052995;28;20032;-71
2021/12/05 06:11:25;;;;;;;13.05;6.53;;;;;;;3.88;89.41;99800.00;5035027;28;20107;-71
2021/12/05 06:13:52;;;;;;;16.17;7.05;;;;;;;3.91;89.61;99799.66;5053488;28;20110;-72
2021/12/05 06:16:18;;;;;;;17.58;7.10;;;;;;;3.97;89.66;99804.13;5034983;28;20060;-73
2021/12/05 06:18:45;;;;;;;14.05;6.63;;;;;;;3.91;89.57;99805.56;5052722;28;20043;-70
2021/12/05 06:21:13;;;;;;;16.15;7.20;;;;;;;3.92;89.45;99807.19;5053160;28;20013;-71
2021/12/05 06:23:39;;;;;;;14.60;7.30;;;;;;;4.00;89.01;99809.72;5052840;28;20021;-71
2021/12/05 06:26:08;;;;;;;15.68;6.60;;;;;;;4.10;89.04;99806.13;5052803;28;20028;-72
2021/12/05 06:28:45;;;;;;;16.88;6.82;;;;;;;4.04;89.32;99805.84;5052746;28;20032;-71
2021/12/05 06:31:28;;;;;;;15.73;7.60;;;;;;;4.18;89.58;99809.44;5034898;28;20052;-71
2021/12/05 06:37:00;;;;;;;17.58;7.50;;;;;;;4.07;89.15;99820.06;5056673;28;20036;-72
2021/12/05 06:39:48;;;;;;;13.52;6.90;;;;;;;4.17;89.35;99820.66;5056575;28;20090;-72
2021/12/05 06:42:33;;;;;;;15.00;6.65;;;;;;;4.26;88.59;99823.97;5056829;28;20074;-71
2021/12/05 06:47:42;;;;;;;14.65;7.03;;;;;;;4.36;88.20;99836.53;5056196;28;20035;-71
2021/12/05 06:50:08;;;;;;;17.27;7.20;;;;;;;4.22;89.22;99830.34;5055984;28;20108;-71
2021/12/05 06:52:34;;;;;;;11.57;6.55;;;;;;;4.18;88.69;99840.13;5056034;28;20029;-72
2021/12/05 06:54:59;;;;;;;13.68;7.18;;;;;;;4.23;89.28;99835.31;5055847;28;20028;-71
2021/12/05 06:57:24;;;;;;;15.75;7.30;;;;;;;4.19;89.07;99828.13;5055926;28;20074;-72
2021/12/05 06:59:50;;;;;;;17.15;8.73;;;;;;;4.21;89.12;99844.91;5055870;28;20113;-71
2021/12/05 07:02:19;;;;;;;16.98;7.43;;;;;;;4.26;88.91;99845.22;5056076;28;20426;-71
2021/12/05 07:05:21;;;;;;;15.38;7.10;;;;;;;4.45;87.61;99851.63;5037884;28;20032;-71
2021/12/05 07:07:47;;;;;;;15.23;7.60;;;;;;;4.25;89.12;99847.91;5037972;28;20029;-72
2021/12/05 07:10:15;;;;;;;15.90;7.72;;;;;;;4.34;88.67;99849.47;5055901;28;20290;-72
2021/12/05 07:13:15;;;;;;;11.55;7.20;;;;;;;4.32;89.30;99851.41;5055589;28;20387;-71
2021/12/05 07:21:26;;;;;;;13.90;8.48;;;;;;;4.23;89.46;99850.66;5055468;28;20053;-71
2021/12/05 07:24:10;;;;;;;11.85;8.02;;;;;;;4.17;89.59;99850.50;5056090;28;20024;-72
2021/12/05 07:42:44;;;;;;;19.10;9.25;;;;;;;4.30;89.85;99886.59;5055450;28;20075;-72
2021/12/05 07:45:16;;;;;;;18.75;9.38;;;;;;;4.50;89.27;99884.41;5056049;28;20456;-73
2021/12/05 07:47:45;;;;;;;16.93;8.40;;;;;;;4.52;88.73;99890.94;5055953;28;20029;-72
2021/12/05 07:50:12;;;;;;;15.70;8.35;;;;;;;4.53;88.38;99900.22;5038200;28;20283;-71
2021/12/05 07:52:44;;;;;;;15.85;9.05;;;;;;;4.46;89.43;99906.16;5037960;28;20025;-72
2021/12/05 07:55:24;;;;;;;19.37;8.73;;;;;;;4.50;88.56;99904.88;5039177;28;20033;-73
2021/12/05 08:00:30;;;;;;;14.65;8.77;;;;;;;4.44;89.14;99911.44;5055829;28;20029;-73
2021/12/05 08:16:40;;;;;;;13.68;9.30;;;;;;;4.49;90.33;99911.75;5055475;28;20060;-72
2021/12/05 08:19:05;;;;;;;16.35;8.77;;;;;;;4.48;89.52;99917.81;5036642;28;20439;-73
2021/12/05 08:21:32;;;;;;;10.80;8.18;;;;;;;4.23;90.09;99927.38;5055203;28;20031;-72
2021/12/05 08:23:57;;;;;;;18.48;9.10;;;;;;;4.26;90.00;99921.16;5037221;28;20028;-72
2021/12/05 08:26:30;;;;;;;15.82;8.65;;;;;;;4.25;89.80;99933.13;5055361;28;20025;-72
2021/12/05 08:29:03;;;;;;;14.13;8.63;;;;;;;4.32;89.65;99938.38;5037456;28;20086;-72
2021/12/05 08:31:39;;;;;;;16.05;9.07;;;;;;;4.22;90.09;99938.56;5055353;28;20025;-74
2021/12/05 08:39:27;;;;;;;14.90;8.60;;;;;;;4.47;89.36;99948.69;5054793;28;20040;-72
2021/12/05 09:23:21;;;;;;;16.23;10.23;;;;;;;4.80;89.60;100025.31;5054457;28;20040;-72
2021/12/05 10:08:49;;;;;;;16.27;10.82;;;;;;;4.60;90.35;100086.34;5057790;28;20382;-73
2021/12/05 10:14:11;;;;;;;16.70;10.07;;;;;;;4.82;90.31;100089.94;5057464;28;20040;-72
2021/12/05 10:34:59;;;;;;;16.52;10.35;;;;;;;4.87;89.47;100116.66;5056763;28;20102;-72
2021/12/05 10:37:09;;;;;;;17.25;11.40;;;;;;;4.86;89.38;100116.81;5056226;28;20041;-73
2021/12/05 10:39:35;;;;;;;20.30;11.48;;;;;;;4.97;89.39;100113.88;5038877;28;20048;-72
2021/12/05 10:42:14;;;;;;;17.23;10.98;;;;;;;4.93;89.24;100118.53;5038534;28;20426;-73
2021/12/05 10:44:45;;;;;;;17.83;11.48;;;;;;;4.98;89.19;100121.41;5056658;28;20079;-72
2021/12/05 10:47:10;;;;;;;17.55;9.95;;;;;;;5.16;89.15;100125.50;5056373;28;20033;-72
2021/12/05 10:49:36;;;;;;;17.23;10.73;;;;;;;5.09;88.87;100127.94;5056751;28;20036;-72
2021/12/05 10:52:01;;;;;;;17.67;10.80;;;;;;;5.10;89.05;100129.53;5056463;28;20372;-74
2021/12/05 10:54:28;;;;;;;15.60;11.00;;;;;;;5.38;88.99;100127.31;5056876;28;20100;-72
2021/12/05 10:56:57;;;;;;;18.95;10.82;;;;;;;5.46;87.58;100133.34;5039043;28;20017;-73
2021/12/05 10:59:36;;;;;;;17.90;10.48;;;;;;;5.54;88.18;100120.50;5039320;28;20484;-75
2021/12/05 11:02:05;;;;;;;18.35;11.32;;;;;;;5.66;87.34;100137.84;5038849;28;20426;-73
2021/12/05 11:04:34;;;;;;;16.50;10.82;;;;;;;5.68;87.32;100136.91;5038003;28;20383;-73
2021/12/05 11:07:01;;;;;;;14.43;10.35;;;;;;;5.64;87.60;100132.13;5055645;28;20052;-74
2021/12/05 11:09:35;;;;;;;15.02;10.18;;;;;;;5.49;87.86;100133.78;5055663;28;20028;-74
2021/12/05 11:12:08;;;;;;;16.25;10.10;;;;;;;5.34;88.59;100143.97;5055569;28;20017;-73
2021/12/05 11:14:41;;;;;;;14.50;10.10;;;;;;;5.28;87.85;100141.28;5056952;28;20062;-73
2021/12/05 11:17:09;;;;;;;15.85;9.63;;;;;;;5.19;88.11;100145.66;5056267;28;20021;-73
2021/12/05 11:19:41;;;;;;;14.10;9.50;;;;;;;5.16;88.97;100148.56;5055129;28;20075;-72
2021/12/05 11:22:16;;;;;;;17.60;10.35;;;;;;;5.38;88.84;100152.94;5037752;28;20024;-73
2021/12/05 11:24:51;;;;;;;15.52;9.43;;;;;;;5.39;87.85;100151.16;5056203;28;20432;-74
2021/12/05 11:27:27;;;;;;;14.90;9.70;;;;;;;5.21;88.51;100156.53;5037664;28;20081;-73
2021/12/05 11:30:04;;;;;;;15.32;9.75;;;;;;;5.18;89.49;100151.75;5055928;28;20016;-74
2021/12/05 11:32:40;;;;;;;17.80;10.45;;;;;;;5.00;89.24;100171.66;5055508;28;20021;-74
2021/12/05 11:35:25;;;;;;;16.92;11.00;;;;;;;5.27;89.30;100162.75;5055440;28;20029;-74
2021/12/05 11:38:07;;;;;;;17.23;10.38;;;;;;;4.93;89.73;100174.09;5055897;28;20013;-73
2021/12/05 11:40:59;;;;;;;16.38;10.18;;;;;;;5.11;89.04;100178.97;5055168;28;20028;-74
2021/12/05 11:43:35;;;;;;;16.42;10.27;;;;;;;5.26;87.61;100169.63;5055111;28;20043;-73
2021/12/05 11:46:06;;;;;;;16.70;9.90;;;;;;;5.20;87.89;100177.97;5054986;28;20464;-73
2021/12/05 11:48:37;;;;;;;17.70;10.85;;;;;;;5.35;87.65;100171.22;5055297;28;20029;-75
2021/12/05 11:51:36;;;;;;;18.27;10.63;;;;;;;5.42;88.49;100179.03;5054874;28;20104;-73
2021/12/05 11:54:08;;;;;;;15.95;10.88;;;;;;;5.34;87.87;100184.19;5054774;28;20036;-74
2021/12/05 11:56:41;;;;;;;17.10;10.20;;;;;;;5.30;87.74;100183.72;5037215;28;20033;-75
2021/12/05 11:59:16;;;;;;;14.70;9.80;;;;;;;5.60;87.19;100192.38;5037051;28;20086;-75
2021/12/05 12:01:44;;;;;;;17.00;10.73;;;;;;;5.60;87.48;100194.13;5055268;28;20458;-74
2021/12/05 12:04:13;;;;;;;17.83;10.63;;;;;;;5.42;87.84;100194.41;5055231;28;20033;-73
2021/12/05 12:06:40;;;;;;;17.00;11.27;;;;;;;5.68;86.87;100201.78;5036796;28;20033;-73
2021/12/05 12:09:06;;;;;;;17.83;10.57;;;;;;;5.31;88.58;100205.00;5054583;28;20021;-73
2021/12/05 12:11:32;;;;;;;18.90;11.05;;;;;;;5.71;88.25;100209.13;5036636;28;20498;-73
2021/12/05 12:13:57;;;;;;;17.52;11.57;;;;;;;5.69;87.84;100211.06;5054547;28;20527;-74
2021/12/05 12:16:22;;;;;;;18.08;12.23;;;;;;;5.46;88.25;100217.91;5054446;28;20052;-74
2021/12/05 12:18:50;;;;;;;16.35;11.30;;;;;;;5.61;87.26;100219.63;5036356;28;20048;-73
2021/12/05 12:21:22;;;;;;;17.13;10.50;;;;;;;5.17;88.59;100225.22;5054393;28;20029;-73
2021/12/05 12:23:51;;;;;;;16.63;11.20;;;;;;;5.32;88.94;100227.09;5054409;28;20021;-74
2021/12/05 12:26:17;;;;;;;17.17;11.60;;;;;;;5.48;88.52;100228.81;5036441;28;20774;-72
2021/12/05 12:28:43;;;;;;;18.42;11.98;;;;;;;5.64;87.33;100226.97;5036324;28;20104;-72
2021/12/05 12:31:21;;;;;;;16.20;10.63;;;;;;;5.55;87.80;100227.97;5035351;28;20132;-73
2021/12/05 12:33:51;;;;;;;17.73;10.90;;;;;;;5.67;87.54;100220.72;5036350;28;20104;-73
2021/12/05 12:36:30;;;;;;;17.13;10.98;;;;;;;5.59;87.40;100231.78;5054093;28;20059;-73
2021/12/05 12:38:55;;;;;;;16.50;11.38;;;;;;;5.53;88.64;100234.25;5036294;28;20016;-73
2021/12/05 12:41:24;;;;;;;18.00;11.75;;;;;;;5.66;88.19;100242.97;5054613;28;20021;-73
2021/12/05 12:44:03;;;;;;;16.60;10.80;;;;;;;5.73;87.37;100242.31;5053970;28;20112;-73
2021/12/05 12:46:54;;;;;;;16.10;11.10;;;;;;;5.46;88.28;100251.22;5035918;28;20037;-73
2021/12/05 12:49:20;;;;;;;16.75;10.90;;;;;;;5.37;88.59;100253.03;5053895;28;20494;-72
2021/12/05 12:51:47;;;;;;;18.75;11.88;;;;;;;5.45;89.17;100257.34;5035956;28;20040;-72
2021/12/05 12:54:25;;;;;;;18.05;10.95;;;;;;;5.60;88.29;100264.13;5053697;28;20028;-73
2021/12/05 12:57:14;;;;;;;16.90;11.00;;;;;;;5.55;88.25;100258.75;5054129;28;20025;-73
2021/12/05 12:59:56;;;;;;;16.17;10.80;;;;;;;5.37;89.05;100265.84;5035901;28;20068;-72
2021/12/05 13:02:37;;;;;;;17.73;10.88;;;;;;;5.57;88.05;100267.03;5035841;28;20106;-72
2021/12/05 13:05:34;;;;;;;17.08;11.05;;;;;;;5.48;88.76;100267.25;5053917;28;20104;-73
2021/12/05 13:11:03;;;;;;;19.83;10.90;;;;;;;5.45;89.56;100273.50;5054335;28;20060;-72
2021/12/05 13:13:32;;;;;;;18.83;10.77;;;;;;;5.53;89.78;100280.38;5053591;28;20028;-74
2021/12/05 13:16:09;;;;;;;16.63;10.48;;;;;;;5.66;88.53;100278.84;5053443;28;20032;-72
2021/12/05 13:18:38;;;;;;;15.77;10.82;;;;;;;5.55;89.74;100291.22;5035489;28;20021;-72
2021/12/05 13:21:03;;;;;;;16.23;10.60;;;;;;;5.30;89.54;100296.44;5035701;28;20013;-73
2021/12/05 13:23:40;;;;;;;16.67;10.40;;;;;;;5.36;90.09;100300.91;5053458;28;20078;-73
2021/12/05 13:26:23;;;;;;;17.20;10.63;;;;;;;5.47;89.21;100292.09;5035442;28;20271;-73
2021/12/05 13:28:54;;;;;;;17.92;10.50;;;;;;;5.40;89.10;100299.59;5035517;28;20047;-72
2021/12/05 13:31:32;;;;;;;20.40;10.73;;;;;;;5.40;89.15;100304.72;5053610;28;20025;-72
2021/12/05 13:34:18;;;;;;;16.23;9.85;;;;;;;5.25;88.84;100311.50;5053300;28;20021;-72
2021/12/05 13:36:46;;;;;;;15.55;9.80;;;;;;;5.20;88.54;100306.84;5053170;28;20094;-72
2021/12/05 13:39:41;;;;;;;15.73;10.20;;;;;;;5.28;88.75;100315.50;5035280;28;20055;-72
2021/12/05 13:42:14;;;;;;;18.25;10.35;;;;;;;5.51;88.39;100318.97;5038061;28;20452;-73
2021/12/05 13:44:58;;;;;;;;;;;;;;;5.51;88.29;100310.47;5039829;28;20032;-73
2021/12/05 13:47:29;;;;;;;;;;;;;;;5.53;87.34;100329.06;5039706;28;19991;-72
2021/12/05 13:49:56;;;;;;;17.27;9.75;;;;;;;5.57;87.65;100322.63;5057256;28;19909;-72
2021/12/05 13:52:38;;;;;;;18.52;10.05;;;;;;;5.64;86.98;100328.72;5057109;28;20072;-73
2021/12/05 13:55:42;;;;;;;16.48;9.90;;;;;;;5.60;87.03;100330.78;5039278;28;20024;-74
2021/12/05 13:58:35;;;;;;;17.15;10.27;;;;;;;5.69;87.55;100336.69;5036773;28;20526;-73
2021/12/05 14:01:25;;;;;;;14.32;9.35;;;;;;;5.46;87.23;100341.72;5057099;28;20472;-75
2021/12/05 14:04:15;;;;;;;14.45;9.25;;;;;;;5.62;87.14;100361.41;5057286;28;20036;-74
2021/12/05 14:07:01;;;;;;;16.67;9.45;;;;;;;5.62;87.78;100361.41;5057256;28;20025;-74
2021/12/05 14:09:54;;;;;;;16.35;9.30;;;;;;;5.75;86.70;100368.56;5056916;28;20116;-72
2021/12/05 14:12:29;;;;;;;13.90;9.32;;;;;;;5.50;87.52;100371.19;5053798;28;20040;-72
2021/12/05 14:14:59;;;;;;;16.90;9.90;;;;;;;5.64;86.44;100387.69;5038995;28;20071;-72
2021/12/05 14:17:33;;;;;;;15.52;9.40;;;;;;;5.64;86.54;100385.13;5038965;28;20029;-73
2021/12/05 14:19:59;;;;;;;14.15;9.20;;;;;;;5.73;86.59;100393.59;5056632;28;20075;-73
2021/12/05 14:22:29;;;;;;;14.63;9.45;;;;;;;5.48;86.75;100397.94;5056593;28;20028;-73
2021/12/05 14:24:57;;;;;;;14.18;9.15;;;;;;;5.47;86.80;100409.97;5038729;28;20391;-74
2021/12/05 14:27:32;;;;;;;15.45;10.52;;;;;;;5.58;86.63;100409.63;5056562;28;20032;-73
2021/12/05 14:29:58;;;;;;;15.55;9.93;;;;;;;5.56;87.21;100421.00;5038603;28;20028;-74
2021/12/05 14:32:31;;;;;;;14.00;9.30;;;;;;;5.59;86.32;100418.91;5056477;28;20025;-74
2021/12/05 14:35:04;;;;;;;18.42;10.75;;;;;;;5.74;85.82;100434.44;5056593;28;20025;-73
2021/12/05 14:37:33;;;;;;;;;;;;;;;5.78;86.52;100445.16;5056953;28;20029;-72
2021/12/05 14:40:03;;;;;;;17.95;10.00;;;;;;;5.64;86.37;100457.69;5038489;28;19912;-72
2021/12/05 14:42:32;;;;;;;15.27;9.68;;;;;;;5.49;87.57;100456.72;5038441;28;20096;-73
2021/12/05 14:45:01;;;;;;;15.48;10.27;;;;;;;5.52;87.90;100460.72;5038472;28;20095;-72
2021/12/05 14:47:30;;;;;;;17.70;10.02;;;;;;;5.62;87.43;100466.50;5038327;28;20112;-72
2021/12/05 14:49:59;;;;;;;17.35;10.18;;;;;;;5.43;87.60;100468.41;5038218;28;20021;-73
2021/12/05 14:52:28;;;;;;;14.70;9.63;;;;;;;5.49;87.21;100464.41;5055499;28;20021;-72
2021/12/05 14:54:54;;;;;;;17.65;10.68;;;;;;;5.55;87.25;100475.78;5055839;28;20048;-73
2021/12/05 14:57:23;;;;;;;18.25;11.95;;;;;;;5.58;86.84;100475.47;5038174;28;20029;-73
2021/12/05 14:59:51;;;;;;;18.58;11.27;;;;;;;5.51;87.43;100472.75;5056064;28;20037;-72
2021/12/05 15:02:19;;;;;;;16.13;10.25;;;;;;;5.53;87.49;100478.53;5056432;28;20028;-73
2021/12/05 15:04:48;;;;;;;13.80;9.18;;;;;;;5.37;87.98;100499.03;5056203;28;20115;-73
2021/12/05 15:07:16;;;;;;;16.10;9.70;;;;;;;5.22;88.66;100498.84;5055840;28;20036;-73
2021/12/05 15:09:45;;;;;;;17.63;10.65;;;;;;;5.24;89.09;100485.91;5055778;28;20032;-74
2021/12/05 15:12:16;;;;;;;16.92;10.70;;;;;;;5.31;89.25;100492.78;5056221;28;20044;-73
2021/12/05 15:14:43;;;;;;;18.05;10.98;;;;;;;5.35;88.53;100496.63;5037853;28;20111;-72
2021/12/05 15:17:14;;;;;;;16.63;10.25;;;;;;;5.45;87.87;100513.59;5055635;28;20029;-74
2021/12/05 15:19:43;;;;;;;18.25;11.10;;;;;;;5.28;88.36;100526.41;5037544;28;20041;-73
2021/12/05 15:22:12;;;;;;;17.17;10.57;;;;;;;5.28;88.92;100520.47;5055457;28;20033;-73
2021/12/05 15:24:38;;;;;;;16.08;10.77;;;;;;;5.33;87.81;100529.28;5055509;28;20431;-73
2021/12/05 15:27:11;;;;;;;16.25;10.32;;;;;;;5.34;87.83;100527.53;5055462;28;20028;-73
2021/12/05 15:29:36;;;;;;;15.57;10.18;;;;;;;5.16;88.39;100537.91;5037549;28;20536;-73
2021/12/05 15:32:01;;;;;;;16.13;10.50;;;;;;;5.05;89.20;100544.13;5055258;28;20104;-74
2021/12/05 15:34:35;;;;;;;16.15;11.05;;;;;;;5.13;89.02;100538.22;5055344;28;20388;-74
2021/12/05 15:37:06;;;;;;;;;;;;;;;5.12;88.89;100549.41;5037859;28;20021;-73
2021/12/05 15:39:32;;;;;;;18.17;11.18;;;;;;;5.22;89.00;100562.09;5037332;28;19916;-73
2021/12/05 15:41:59;;;;;;;17.52;10.90;;;;;;;5.26;89.11;100563.38;5055191;28;20017;-74
2021/12/05 15:44:36;;;;;;;16.15;10.63;;;;;;;5.23;88.51;100541.44;5055228;28;20458;-74
2021/12/05 15:47:12;;;;;;;15.48;10.25;;;;;;;5.10;89.61;100580.31;5037358;28;20490;-73
2021/12/05 15:49:52;;;;;;;15.18;10.63;;;;;;;5.07;89.83;100585.75;5020532;28;20032;-73
2021/12/05 15:52:22;;;;;;;15.27;10.40;;;;;;;5.11;88.83;100583.69;5055533;28;20021;-73
2021/12/05 15:54:48;;;;;;;17.42;10.82;;;;;;;5.38;89.31;100595.44;5036890;28;20025;-74
2021/12/05 15:57:23;;;;;;;18.42;11.02;;;;;;;5.41;87.45;100588.25;5036942;28;20380;-73
2021/12/05 15:59:49;;;;;;;17.30;11.25;;;;;;;5.36;87.72;100590.47;5037022;28;20029;-73
2021/12/05 16:02:18;;;;;;;19.70;12.23;;;;;;;5.18;89.21;100595.72;5036974;28;20020;-75
2021/12/05 16:04:44;;;;;;;20.00;12.30;;;;;;;5.14;88.43;100601.31;5054646;28;20384;-74
2021/12/05 16:07:10;;;;;;;15.90;11.15;;;;;;;5.22;88.07;100611.59;5036707;28;20024;-73
2021/12/05 16:09:38;;;;;;;16.90;10.95;;;;;;;5.18;88.16;100608.53;5036720;28;20025;-74
2021/12/05 16:12:16;;;;;;;15.55;10.98;;;;;;;5.18;87.58;100610.28;5054538;28;20490;-75
2021/12/05 16:14:56;;;;;;;16.45;10.80;;;;;;;5.14;88.54;100614.91;5054570;28;20021;-72
2021/12/05 16:17:25;;;;;;;17.35;11.68;;;;;;;5.15;87.71;100629.34;5054524;28;20104;-75
2021/12/05 16:20:26;;;;;;;16.85;10.60;;;;;;;5.13;88.23;100636.38;5054281;28;20542;-73
2021/12/05 16:23:05;;;;;;;15.10;10.25;;;;;;;5.03;88.47;100633.13;4995222;28;20037;-73
2021/12/05 16:25:31;;;;;;;15.18;10.43;;;;;;;5.13;87.97;100650.94;5036607;28;20480;-74
2021/12/05 16:28:02;;;;;;;15.88;9.40;;;;;;;4.88;87.48;100643.13;5036432;28;20112;-74
2021/12/05 16:30:44;;;;;;;14.25;10.20;;;;;;;4.86;88.78;100642.50;5036397;28;20154;-74